Terminal Aerodrome Forecast
Issued by NWS

Home | Current Version | Previous Version | Graphics & Text | Print | Product List | Glossary On
Versions: 1 2 3 4 5 6 7 8 9 10 11 12 13 14 15 16 17 18 19 20 21
000
FTUS43 KGRB 291253 AAA
TAFMTW
TAF AMD
KMTW 291253Z 2913/3012 01012KT P6SM SCT010
      TEMPO 2913/2915 BKN009
     FM291600 03014G20KT P6SM SCT017
     FM292000 04012G18KT P6SM SCT120
     FM300500 04011G16KT P6SM BKN045
     FM300900 04011G17KT P6SM OVC025=

USA.gov is the U.S. government's official web portal to all federal, state and local government web resources and services.